sensor_id;sensor_type;location;lat;lon;timestamp;P1;durP1;ratioP1;P2;durP2;ratioP2
21000;SDS011;10658;50.920;12.238;2023-02-28T00:04:08;6.13;;;4.10;;
21000;SDS011;10658;50.920;12.238;2023-02-28T00:08:10;7.03;;;4.00;;
21000;SDS011;10658;50.920;12.238;2023-02-28T00:12:11;8.00;;;4.30;;
21000;SDS011;10658;50.920;12.238;2023-02-28T00:16:15;8.07;;;4.03;;
21000;SDS011;10658;50.920;12.238;2023-02-28T00:20:19;5.85;;;3.55;;
21000;SDS011;10658;50.920;12.238;2023-02-28T00:28:33;4.75;;;3.67;;
21000;SDS011;10658;50.920;12.238;2023-02-28T00:32:35;4.38;;;3.30;;
21000;SDS011;10658;50.920;12.238;2023-02-28T00:36:37;4.78;;;3.30;;
21000;SDS011;10658;50.920;12.238;2023-02-28T00:40:38;3.95;;;3.20;;
21000;SDS011;10658;50.920;12.238;2023-02-28T00:44:40;4.03;;;3.05;;
21000;SDS011;10658;50.920;12.238;2023-02-28T00:48:43;5.22;;;3.20;;
21000;SDS011;10658;50.920;12.238;2023-02-28T00:52:47;5.93;;;3.60;;
21000;SDS011;10658;50.920;12.238;2023-02-28T00:56:49;6.95;;;4.30;;
21000;SDS011;10658;50.920;12.238;2023-02-28T01:00:51;3.85;;;3.20;;
21000;SDS011;10658;50.920;12.238;2023-02-28T01:04:54;6.07;;;3.75;;
21000;SDS011;10658;50.920;12.238;2023-02-28T01:08:55;5.93;;;3.80;;
21000;SDS011;10658;50.920;12.238;2023-02-28T01:12:56;7.50;;;3.60;;
21000;SDS011;10658;50.920;12.238;2023-02-28T01:16:58;4.95;;;3.47;;
21000;SDS011;10658;50.920;12.238;2023-02-28T01:21:03;5.40;;;3.58;;
21000;SDS011;10658;50.920;12.238;2023-02-28T01:25:08;5.00;;;3.25;;
21000;SDS011;10658;50.920;12.238;2023-02-28T01:29:11;5.40;;;3.58;;
21000;SDS011;10658;50.920;12.238;2023-02-28T01:33:13;5.78;;;4.38;;
21000;SDS011;10658;50.920;12.238;2023-02-28T01:37:14;4.55;;;3.85;;
21000;SDS011;10658;50.920;12.238;2023-02-28T01:41:19;5.37;;;3.30;;
21000;SDS011;10658;50.920;12.238;2023-02-28T01:45:28;5.18;;;3.60;;
21000;SDS011;10658;50.920;12.238;2023-02-28T01:49:30;5.17;;;3.90;;
21000;SDS011;10658;50.920;12.238;2023-02-28T01:53:34;3.77;;;3.00;;
21000;SDS011;10658;50.920;12.238;2023-02-28T01:57:43;4.57;;;3.40;;
21000;SDS011;10658;50.920;12.238;2023-02-28T02:01:53;7.38;;;3.95;;
21000;SDS011;10658;50.920;12.238;2023-02-28T02:05:55;7.30;;;3.83;;
21000;SDS011;10658;50.920;12.238;2023-02-28T02:10:00;6.33;;;3.93;;
21000;SDS011;10658;50.920;12.238;2023-02-28T02:14:40;5.72;;;3.65;;
21000;SDS011;10658;50.920;12.238;2023-02-28T02:23:06;5.78;;;3.22;;
21000;SDS011;10658;50.920;12.238;2023-02-28T02:36:55;5.07;;;3.65;;
21000;SDS011;10658;50.920;12.238;2023-02-28T02:41:08;5.22;;;3.38;;
21000;SDS011;10658;50.920;12.238;2023-02-28T02:45:16;6.50;;;3.70;;
21000;SDS011;10658;50.920;12.238;2023-02-28T02:49:39;6.75;;;4.00;;
21000;SDS011;10658;50.920;12.238;2023-02-28T02:53:52;6.07;;;3.90;;
21000;SDS011;10658;50.920;12.238;2023-02-28T02:58:05;5.25;;;3.58;;
21000;SDS011;10658;50.920;12.238;2023-02-28T03:02:14;6.45;;;3.67;;
21000;SDS011;10658;50.920;12.238;2023-02-28T03:06:17;3.22;;;2.92;;
21000;SDS011;10658;50.920;12.238;2023-02-28T03:10:28;5.57;;;3.50;;
21000;SDS011;10658;50.920;12.238;2023-02-28T03:19:09;9.48;;;3.35;;
21000;SDS011;10658;50.920;12.238;2023-02-28T03:23:15;5.35;;;3.42;;
21000;SDS011;10658;50.920;12.238;2023-02-28T03:27:23;3.70;;;3.30;;
21000;SDS011;10658;50.920;12.238;2023-02-28T03:31:38;6.07;;;3.20;;
21000;SDS011;10658;50.920;12.238;2023-02-28T03:35:55;3.70;;;2.57;;
21000;SDS011;10658;50.920;12.238;2023-02-28T03:40:08;7.53;;;3.50;;
21000;SDS011;10658;50.920;12.238;2023-02-28T03:44:15;5.57;;;3.27;;
21000;SDS011;10658;50.920;12.238;2023-02-28T03:48:23;7.47;;;3.87;;
21000;SDS011;10658;50.920;12.238;2023-02-28T03:52:46;5.23;;;3.17;;
21000;SDS011;10658;50.920;12.238;2023-02-28T03:57:34;4.78;;;3.92;;
21000;SDS011;10658;50.920;12.238;2023-02-28T04:01:41;2.97;;;2.67;;
21000;SDS011;10658;50.920;12.238;2023-02-28T04:05:54;5.50;;;2.97;;
21000;SDS011;10658;50.920;12.238;2023-02-28T04:09:57;7.28;;;3.33;;
21000;SDS011;10658;50.920;12.238;2023-02-28T04:13:59;5.93;;;2.93;;
21000;SDS011;10658;50.920;12.238;2023-02-28T04:18:02;5.20;;;3.25;;
21000;SDS011;10658;50.920;12.238;2023-02-28T04:22:03;5.40;;;3.10;;
21000;SDS011;10658;50.920;12.238;2023-02-28T04:26:04;6.17;;;3.40;;
21000;SDS011;10658;50.920;12.238;2023-02-28T04:30:06;4.88;;;3.22;;
21000;SDS011;10658;50.920;12.238;2023-02-28T04:34:08;7.67;;;4.13;;
21000;SDS011;10658;50.920;12.238;2023-02-28T04:38:10;5.53;;;3.13;;
21000;SDS011;10658;50.920;12.238;2023-02-28T04:42:11;6.23;;;3.80;;
21000;SDS011;10658;50.920;12.238;2023-02-28T04:46:14;6.00;;;3.77;;
21000;SDS011;10658;50.920;12.238;2023-02-28T04:50:15;5.63;;;3.27;;
21000;SDS011;10658;50.920;12.238;2023-02-28T04:54:16;5.20;;;3.60;;
21000;SDS011;10658;50.920;12.238;2023-02-28T04:58:19;5.37;;;3.33;;
21000;SDS011;10658;50.920;12.238;2023-02-28T05:02:23;6.43;;;3.30;;
21000;SDS011;10658;50.920;12.238;2023-02-28T05:06:25;5.13;;;3.07;;
21000;SDS011;10658;50.920;12.238;2023-02-28T05:10:29;6.47;;;3.63;;
21000;SDS011;10658;50.920;12.238;2023-02-28T05:14:30;5.90;;;3.10;;
21000;SDS011;10658;50.920;12.238;2023-02-28T05:18:32;5.07;;;3.57;;
21000;SDS011;10658;50.920;12.238;2023-02-28T05:22:33;4.53;;;3.20;;
21000;SDS011;10658;50.920;12.238;2023-02-28T05:26:36;5.80;;;3.37;;
21000;SDS011;10658;50.920;12.238;2023-02-28T05:30:38;4.97;;;3.23;;
21000;SDS011;10658;50.920;12.238;2023-02-28T05:34:40;5.00;;;3.40;;
21000;SDS011;10658;50.920;12.238;2023-02-28T05:38:42;4.80;;;3.60;;
21000;SDS011;10658;50.920;12.238;2023-02-28T05:42:46;5.70;;;3.63;;
21000;SDS011;10658;50.920;12.238;2023-02-28T05:46:47;5.27;;;3.13;;
21000;SDS011;10658;50.920;12.238;2023-02-28T05:50:49;8.17;;;3.77;;
21000;SDS011;10658;50.920;12.238;2023-02-28T05:54:50;7.73;;;4.03;;
21000;SDS011;10658;50.920;12.238;2023-02-28T05:58:51;8.37;;;3.87;;
21000;SDS011;10658;50.920;12.238;2023-02-28T06:02:52;6.57;;;3.43;;
21000;SDS011;10658;50.920;12.238;2023-02-28T06:06:56;5.70;;;3.77;;
21000;SDS011;10658;50.920;12.238;2023-02-28T06:10:57;10.07;;;4.73;;
21000;SDS011;10658;50.920;12.238;2023-02-28T06:14:59;8.03;;;4.37;;
21000;SDS011;10658;50.920;12.238;2023-02-28T06:19:00;6.47;;;3.77;;
21000;SDS011;10658;50.920;12.238;2023-02-28T06:23:03;6.25;;;3.70;;
21000;SDS011;10658;50.920;12.238;2023-02-28T06:27:04;6.10;;;3.78;;
21000;SDS011;10658;50.920;12.238;2023-02-28T06:31:09;5.40;;;4.30;;
21000;SDS011;10658;50.920;12.238;2023-02-28T06:35:12;5.53;;;3.45;;
21000;SDS011;10658;50.920;12.238;2023-02-28T06:39:13;7.55;;;3.55;;
21000;SDS011;10658;50.920;12.238;2023-02-28T06:43:14;8.27;;;4.33;;
21000;SDS011;10658;50.920;12.238;2023-02-28T06:47:16;6.47;;;3.77;;
21000;SDS011;10658;50.920;12.238;2023-02-28T06:51:18;8.00;;;4.17;;
21000;SDS011;10658;50.920;12.238;2023-02-28T06:55:22;9.93;;;4.47;;
21000;SDS011;10658;50.920;12.238;2023-02-28T06:59:24;6.63;;;4.13;;
21000;SDS011;10658;50.920;12.238;2023-02-28T07:03:25;7.63;;;3.63;;
21000;SDS011;10658;50.920;12.238;2023-02-28T07:07:27;5.38;;;3.78;;
21000;SDS011;10658;50.920;12.238;2023-02-28T07:11:28;6.57;;;4.25;;
21000;SDS011;10658;50.920;12.238;2023-02-28T07:15:29;7.30;;;4.35;;
21000;SDS011;10658;50.920;12.238;2023-02-28T07:19:30;9.00;;;4.35;;
21000;SDS011;10658;50.920;12.238;2023-02-28T07:23:32;7.55;;;4.63;;
21000;SDS011;10658;50.920;12.238;2023-02-28T07:27:33;12.10;;;4.82;;
21000;SDS011;10658;50.920;12.238;2023-02-28T07:31:34;8.50;;;4.72;;
21000;SDS011;10658;50.920;12.238;2023-02-28T07:35:36;6.55;;;4.70;;
21000;SDS011;10658;50.920;12.238;2023-02-28T07:39:37;9.07;;;4.50;;
21000;SDS011;10658;50.920;12.238;2023-02-28T07:43:38;8.27;;;4.43;;
21000;SDS011;10658;50.920;12.238;2023-02-28T07:47:40;8.23;;;4.53;;
21000;SDS011;10658;50.920;12.238;2023-02-28T07:51:42;9.45;;;4.95;;
21000;SDS011;10658;50.920;12.238;2023-02-28T07:55:43;7.95;;;4.90;;
21000;SDS011;10658;50.920;12.238;2023-02-28T07:59:45;10.95;;;5.30;;
21000;SDS011;10658;50.920;12.238;2023-02-28T08:03:47;9.00;;;5.50;;
21000;SDS011;10658;50.920;12.238;2023-02-28T08:07:49;9.88;;;5.80;;
21000;SDS011;10658;50.920;12.238;2023-02-28T08:11:50;10.25;;;5.05;;
21000;SDS011;10658;50.920;12.238;2023-02-28T08:15:51;9.32;;;5.53;;
21000;SDS011;10658;50.920;12.238;2023-02-28T08:19:53;9.65;;;5.18;;
21000;SDS011;10658;50.920;12.238;2023-02-28T08:23:54;10.10;;;5.53;;
21000;SDS011;10658;50.920;12.238;2023-02-28T08:27:55;10.15;;;6.22;;
21000;SDS011;10658;50.920;12.238;2023-02-28T08:31:57;9.65;;;5.60;;
21000;SDS011;10658;50.920;12.238;2023-02-28T08:35:59;11.65;;;6.88;;
21000;SDS011;10658;50.920;12.238;2023-02-28T08:40:00;11.57;;;7.28;;
21000;SDS011;10658;50.920;12.238;2023-02-28T08:44:03;10.80;;;6.93;;
21000;SDS011;10658;50.920;12.238;2023-02-28T08:48:04;12.23;;;6.07;;
21000;SDS011;10658;50.920;12.238;2023-02-28T08:52:06;9.65;;;5.97;;
21000;SDS011;10658;50.920;12.238;2023-02-28T08:56:09;9.18;;;5.65;;
21000;SDS011;10658;50.920;12.238;2023-02-28T09:00:15;10.63;;;7.20;;
21000;SDS011;10658;50.920;12.238;2023-02-28T09:04:17;10.15;;;6.25;;
21000;SDS011;10658;50.920;12.238;2023-02-28T09:08:18;9.13;;;5.82;;
21000;SDS011;10658;50.920;12.238;2023-02-28T09:12:20;9.27;;;5.93;;
21000;SDS011;10658;50.920;12.238;2023-02-28T09:16:44;10.18;;;6.10;;
21000;SDS011;10658;50.920;12.238;2023-02-28T09:20:45;11.88;;;6.55;;
21000;SDS011;10658;50.920;12.238;2023-02-28T09:24:47;13.23;;;6.32;;
21000;SDS011;10658;50.920;12.238;2023-02-28T09:28:49;10.50;;;5.78;;
21000;SDS011;10658;50.920;12.238;2023-02-28T09:32:51;8.57;;;5.45;;
21000;SDS011;10658;50.920;12.238;2023-02-28T09:36:55;9.95;;;5.40;;
21000;SDS011;10658;50.920;12.238;2023-02-28T09:40:58;9.43;;;5.55;;
21000;SDS011;10658;50.920;12.238;2023-02-28T09:45:02;7.45;;;5.10;;
21000;SDS011;10658;50.920;12.238;2023-02-28T09:49:18;7.82;;;4.45;;
21000;SDS011;10658;50.920;12.238;2023-02-28T09:53:27;8.85;;;5.15;;
21000;SDS011;10658;50.920;12.238;2023-02-28T09:57:39;9.75;;;4.43;;
21000;SDS011;10658;50.920;12.238;2023-02-28T10:01:45;7.78;;;4.55;;
21000;SDS011;10658;50.920;12.238;2023-02-28T10:10:27;9.65;;;5.60;;
21000;SDS011;10658;50.920;12.238;2023-02-28T10:14:33;4.60;;;4.07;;
21000;SDS011;10658;50.920;12.238;2023-02-28T10:18:45;8.85;;;4.38;;
21000;SDS011;10658;50.920;12.238;2023-02-28T10:23:11;6.82;;;4.78;;
21000;SDS011;10658;50.920;12.238;2023-02-28T10:27:17;9.63;;;5.50;;
21000;SDS011;10658;50.920;12.238;2023-02-28T10:31:21;13.35;;;5.88;;
21000;SDS011;10658;50.920;12.238;2023-02-28T10:35:23;10.60;;;5.85;;
21000;SDS011;10658;50.920;12.238;2023-02-28T10:43:42;10.10;;;4.72;;
21000;SDS011;10658;50.920;12.238;2023-02-28T10:47:52;9.38;;;5.32;;
21000;SDS011;10658;50.920;12.238;2023-02-28T10:52:00;7.95;;;5.40;;
21000;SDS011;10658;50.920;12.238;2023-02-28T10:56:20;8.90;;;5.75;;
21000;SDS011;10658;50.920;12.238;2023-02-28T11:00:23;7.57;;;4.88;;
21000;SDS011;10658;50.920;12.238;2023-02-28T11:08:29;7.80;;;5.40;;
21000;SDS011;10658;50.920;12.238;2023-02-28T11:12:36;8.43;;;5.53;;
21000;SDS011;10658;50.920;12.238;2023-02-28T11:16:40;11.25;;;5.88;;
21000;SDS011;10658;50.920;12.238;2023-02-28T11:20:47;10.40;;;5.82;;
21000;SDS011;10658;50.920;12.238;2023-02-28T11:24:57;8.77;;;6.00;;
21000;SDS011;10658;50.920;12.238;2023-02-28T11:29:30;10.63;;;6.22;;
21000;SDS011;10658;50.920;12.238;2023-02-28T11:33:41;8.50;;;6.30;;
21000;SDS011;10658;50.920;12.238;2023-02-28T11:37:49;10.13;;;6.05;;
21000;SDS011;10658;50.920;12.238;2023-02-28T11:46:24;12.68;;;6.20;;
21000;SDS011;10658;50.920;12.238;2023-02-28T11:50:42;10.90;;;5.72;;
21000;SDS011;10658;50.920;12.238;2023-02-28T12:08:11;8.88;;;5.60;;
21000;SDS011;10658;50.920;12.238;2023-02-28T12:18:02;8.98;;;6.80;;
21000;SDS011;10658;50.920;12.238;2023-02-28T12:30:35;9.15;;;7.00;;
21000;SDS011;10658;50.920;12.238;2023-02-28T12:34:45;9.70;;;7.28;;
21000;SDS011;10658;50.920;12.238;2023-02-28T12:39:02;10.23;;;7.35;;
21000;SDS011;10658;50.920;12.238;2023-02-28T12:43:12;10.98;;;6.90;;
21000;SDS011;10658;50.920;12.238;2023-02-28T12:47:16;9.48;;;6.47;;
21000;SDS011;10658;50.920;12.238;2023-02-28T12:51:18;11.73;;;7.70;;
21000;SDS011;10658;50.920;12.238;2023-02-28T12:55:29;12.23;;;6.90;;
21000;SDS011;10658;50.920;12.238;2023-02-28T13:00:15;9.82;;;7.38;;
21000;SDS011;10658;50.920;12.238;2023-02-28T13:13:06;11.20;;;6.72;;
21000;SDS011;10658;50.920;12.238;2023-02-28T13:17:17;14.45;;;7.82;;
21000;SDS011;10658;50.920;12.238;2023-02-28T13:21:27;12.07;;;7.40;;
21000;SDS011;10658;50.920;12.238;2023-02-28T13:26:19;10.23;;;6.35;;
21000;SDS011;10658;50.920;12.238;2023-02-28T13:35:37;10.07;;;6.93;;
21000;SDS011;10658;50.920;12.238;2023-02-28T13:40:44;10.73;;;6.28;;
21000;SDS011;10658;50.920;12.238;2023-02-28T13:49:35;11.57;;;6.95;;
21000;SDS011;10658;50.920;12.238;2023-02-28T13:53:54;10.80;;;6.43;;
21000;SDS011;10658;50.920;12.238;2023-02-28T14:07:08;9.82;;;6.90;;
21000;SDS011;10658;50.920;12.238;2023-02-28T14:11:31;14.43;;;7.50;;
21000;SDS011;10658;50.920;12.238;2023-02-28T14:15:46;12.95;;;7.32;;
21000;SDS011;10658;50.920;12.238;2023-02-28T14:19:58;11.10;;;6.97;;
21000;SDS011;10658;50.920;12.238;2023-02-28T14:28:55;8.80;;;6.45;;
21000;SDS011;10658;50.920;12.238;2023-02-28T14:33:17;11.30;;;6.78;;
21000;SDS011;10658;50.920;12.238;2023-02-28T14:37:38;11.57;;;6.85;;
21000;SDS011;10658;50.920;12.238;2023-02-28T14:41:57;11.38;;;7.78;;
21000;SDS011;10658;50.920;12.238;2023-02-28T14:46:08;15.25;;;7.28;;
21000;SDS011;10658;50.920;12.238;2023-02-28T14:50:24;13.43;;;7.05;;
21000;SDS011;10658;50.920;12.238;2023-02-28T14:54:33;13.00;;;7.47;;
21000;SDS011;10658;50.920;12.238;2023-02-28T14:58:51;12.50;;;8.20;;
21000;SDS011;10658;50.920;12.238;2023-02-28T15:03:17;10.68;;;7.35;;
21000;SDS011;10658;50.920;12.238;2023-02-28T15:07:24;11.82;;;7.15;;
21000;SDS011;10658;50.920;12.238;2023-02-28T15:11:28;11.95;;;8.10;;
21000;SDS011;10658;50.920;12.238;2023-02-28T15:15:45;13.45;;;7.32;;
21000;SDS011;10658;50.920;12.238;2023-02-28T15:19:47;17.73;;;7.93;;
21000;SDS011;10658;50.920;12.238;2023-02-28T15:33:31;12.82;;;7.07;;
21000;SDS011;10658;50.920;12.238;2023-02-28T15:38:37;12.10;;;7.15;;
21000;SDS011;10658;50.920;12.238;2023-02-28T15:42:28;14.05;;;7.43;;
21000;SDS011;10658;50.920;12.238;2023-02-28T15:46:37;14.45;;;8.43;;
21000;SDS011;10658;50.920;12.238;2023-02-28T15:50:54;12.80;;;7.18;;
21000;SDS011;10658;50.920;12.238;2023-02-28T15:54:58;17.40;;;9.02;;
21000;SDS011;10658;50.920;12.238;2023-02-28T15:59:17;17.65;;;8.35;;
21000;SDS011;10658;50.920;12.238;2023-02-28T16:03:33;14.73;;;8.05;;
21000;SDS011;10658;50.920;12.238;2023-02-28T16:07:44;13.15;;;8.02;;
21000;SDS011;10658;50.920;12.238;2023-02-28T16:15:59;16.65;;;8.40;;
21000;SDS011;10658;50.920;12.238;2023-02-28T16:20:06;15.82;;;7.88;;
21000;SDS011;10658;50.920;12.238;2023-02-28T16:24:37;14.30;;;8.10;;
21000;SDS011;10658;50.920;12.238;2023-02-28T16:28:42;11.32;;;7.75;;
21000;SDS011;10658;50.920;12.238;2023-02-28T16:32:44;14.52;;;8.20;;
21000;SDS011;10658;50.920;12.238;2023-02-28T16:36:47;19.88;;;9.90;;
21000;SDS011;10658;50.920;12.238;2023-02-28T16:41:16;14.48;;;9.07;;
21000;SDS011;10658;50.920;12.238;2023-02-28T16:45:24;16.95;;;9.27;;
21000;SDS011;10658;50.920;12.238;2023-02-28T16:53:44;13.93;;;8.88;;
21000;SDS011;10658;50.920;12.238;2023-02-28T16:57:50;17.70;;;8.85;;
21000;SDS011;10658;50.920;12.238;2023-02-28T17:01:59;17.27;;;9.82;;
21000;SDS011;10658;50.920;12.238;2023-02-28T17:06:00;17.80;;;8.35;;
21000;SDS011;10658;50.920;12.238;2023-02-28T17:10:02;24.85;;;10.70;;
21000;SDS011;10658;50.920;12.238;2023-02-28T17:14:11;18.23;;;10.68;;
21000;SDS011;10658;50.920;12.238;2023-02-28T17:18:14;14.98;;;9.27;;
21000;SDS011;10658;50.920;12.238;2023-02-28T17:22:20;18.45;;;10.63;;
21000;SDS011;10658;50.920;12.238;2023-02-28T17:26:21;17.52;;;8.93;;
21000;SDS011;10658;50.920;12.238;2023-02-28T17:30:26;17.85;;;9.20;;
21000;SDS011;10658;50.920;12.238;2023-02-28T17:34:27;17.13;;;9.45;;
21000;SDS011;10658;50.920;12.238;2023-02-28T17:38:29;16.30;;;9.32;;
21000;SDS011;10658;50.920;12.238;2023-02-28T17:42:30;19.90;;;10.55;;
21000;SDS011;10658;50.920;12.238;2023-02-28T17:46:32;16.13;;;9.43;;
21000;SDS011;10658;50.920;12.238;2023-02-28T17:50:32;16.75;;;9.65;;
21000;SDS011;10658;50.920;12.238;2023-02-28T17:54:33;18.40;;;9.40;;
21000;SDS011;10658;50.920;12.238;2023-02-28T17:58:34;20.35;;;10.60;;
21000;SDS011;10658;50.920;12.238;2023-02-28T18:02:36;16.13;;;8.35;;
21000;SDS011;10658;50.920;12.238;2023-02-28T18:06:38;18.63;;;9.27;;
21000;SDS011;10658;50.920;12.238;2023-02-28T18:10:49;16.92;;;10.13;;
21000;SDS011;10658;50.920;12.238;2023-02-28T18:14:50;18.27;;;9.25;;
21000;SDS011;10658;50.920;12.238;2023-02-28T18:18:52;16.80;;;9.77;;
21000;SDS011;10658;50.920;12.238;2023-02-28T18:22:56;18.38;;;9.75;;
21000;SDS011;10658;50.920;12.238;2023-02-28T18:27:00;17.08;;;10.73;;
21000;SDS011;10658;50.920;12.238;2023-02-28T18:31:05;16.48;;;10.35;;
21000;SDS011;10658;50.920;12.238;2023-02-28T18:35:10;15.68;;;10.35;;
21000;SDS011;10658;50.920;12.238;2023-02-28T18:39:11;20.63;;;10.50;;
21000;SDS011;10658;50.920;12.238;2023-02-28T18:43:16;19.20;;;9.43;;
21000;SDS011;10658;50.920;12.238;2023-02-28T18:47:29;17.52;;;9.25;;
21000;SDS011;10658;50.920;12.238;2023-02-28T18:51:30;16.25;;;10.15;;
21000;SDS011;10658;50.920;12.238;2023-02-28T18:55:31;20.35;;;10.63;;
21000;SDS011;10658;50.920;12.238;2023-02-28T19:04:10;18.85;;;10.18;;
21000;SDS011;10658;50.920;12.238;2023-02-28T19:08:13;14.45;;;9.88;;
21000;SDS011;10658;50.920;12.238;2023-02-28T19:12:15;15.45;;;9.43;;
21000;SDS011;10658;50.920;12.238;2023-02-28T19:16:19;17.00;;;9.52;;
21000;SDS011;10658;50.920;12.238;2023-02-28T19:20:25;13.82;;;8.98;;
21000;SDS011;10658;50.920;12.238;2023-02-28T19:24:27;16.70;;;9.63;;
21000;SDS011;10658;50.920;12.238;2023-02-28T19:28:29;18.42;;;9.75;;
21000;SDS011;10658;50.920;12.238;2023-02-28T19:32:30;19.92;;;10.93;;
21000;SDS011;10658;50.920;12.238;2023-02-28T19:36:31;18.38;;;9.65;;
21000;SDS011;10658;50.920;12.238;2023-02-28T19:40:35;18.20;;;10.02;;
21000;SDS011;10658;50.920;12.238;2023-02-28T19:44:36;18.00;;;10.68;;
21000;SDS011;10658;50.920;12.238;2023-02-28T19:48:39;23.92;;;10.48;;
21000;SDS011;10658;50.920;12.238;2023-02-28T19:52:41;18.10;;;10.40;;
21000;SDS011;10658;50.920;12.238;2023-02-28T19:56:43;19.63;;;10.95;;
21000;SDS011;10658;50.920;12.238;2023-02-28T20:00:45;18.58;;;11.18;;
21000;SDS011;10658;50.920;12.238;2023-02-28T20:04:47;15.23;;;10.27;;
21000;SDS011;10658;50.920;12.238;2023-02-28T20:08:49;18.83;;;11.05;;
21000;SDS011;10658;50.920;12.238;2023-02-28T20:12:59;20.45;;;10.90;;
21000;SDS011;10658;50.920;12.238;2023-02-28T20:17:00;19.35;;;11.02;;
21000;SDS011;10658;50.920;12.238;2023-02-28T20:21:02;21.50;;;11.10;;
21000;SDS011;10658;50.920;12.238;2023-02-28T20:25:04;19.52;;;11.18;;
21000;SDS011;10658;50.920;12.238;2023-02-28T20:29:07;18.42;;;10.55;;
21000;SDS011;10658;50.920;12.238;2023-02-28T20:33:09;25.45;;;12.55;;
21000;SDS011;10658;50.920;12.238;2023-02-28T20:37:10;22.80;;;11.83;;
21000;SDS011;10658;50.920;12.238;2023-02-28T20:41:12;18.95;;;10.48;;
21000;SDS011;10658;50.920;12.238;2023-02-28T20:45:13;20.30;;;11.82;;
21000;SDS011;10658;50.920;12.238;2023-02-28T20:49:15;21.48;;;10.93;;
21000;SDS011;10658;50.920;12.238;2023-02-28T20:53:17;23.00;;;12.70;;
21000;SDS011;10658;50.920;12.238;2023-02-28T20:57:18;21.77;;;11.63;;
21000;SDS011;10658;50.920;12.238;2023-02-28T21:01:23;18.40;;;10.75;;
21000;SDS011;10658;50.920;12.238;2023-02-28T21:05:25;25.25;;;12.68;;
21000;SDS011;10658;50.920;12.238;2023-02-28T21:09:26;18.85;;;11.63;;
21000;SDS011;10658;50.920;12.238;2023-02-28T21:13:32;24.90;;;11.57;;
21000;SDS011;10658;50.920;12.238;2023-02-28T21:17:33;21.90;;;11.48;;
21000;SDS011;10658;50.920;12.238;2023-02-28T21:21:39;21.87;;;11.40;;
21000;SDS011;10658;50.920;12.238;2023-02-28T21:25:44;19.55;;;11.82;;
21000;SDS011;10658;50.920;12.238;2023-02-28T21:29:46;20.88;;;10.48;;
21000;SDS011;10658;50.920;12.238;2023-02-28T21:33:47;24.38;;;12.27;;
21000;SDS011;10658;50.920;12.238;2023-02-28T21:37:49;21.43;;;11.47;;
21000;SDS011;10658;50.920;12.238;2023-02-28T21:41:51;21.63;;;12.63;;
21000;SDS011;10658;50.920;12.238;2023-02-28T21:45:53;22.25;;;11.88;;
21000;SDS011;10658;50.920;12.238;2023-02-28T21:49:54;18.97;;;10.60;;
21000;SDS011;10658;50.920;12.238;2023-02-28T21:53:59;22.30;;;11.63;;
21000;SDS011;10658;50.920;12.238;2023-02-28T21:58:01;24.37;;;13.00;;
21000;SDS011;10658;50.920;12.238;2023-02-28T22:02:03;23.37;;;12.97;;
21000;SDS011;10658;50.920;12.238;2023-02-28T22:06:18;24.48;;;12.82;;
21000;SDS011;10658;50.920;12.238;2023-02-28T22:10:22;19.58;;;12.43;;
21000;SDS011;10658;50.920;12.238;2023-02-28T22:14:25;19.52;;;12.40;;
21000;SDS011;10658;50.920;12.238;2023-02-28T22:18:26;23.15;;;12.70;;
21000;SDS011;10658;50.920;12.238;2023-02-28T22:22:27;18.07;;;11.80;;
21000;SDS011;10658;50.920;12.238;2023-02-28T22:26:37;23.70;;;12.47;;
21000;SDS011;10658;50.920;12.238;2023-02-28T22:30:38;20.88;;;11.57;;
21000;SDS011;10658;50.920;12.238;2023-02-28T22:34:40;21.42;;;11.15;;
21000;SDS011;10658;50.920;12.238;2023-02-28T22:38:47;17.97;;;10.47;;
21000;SDS011;10658;50.920;12.238;2023-02-28T22:42:50;21.73;;;11.90;;
21000;SDS011;10658;50.920;12.238;2023-02-28T22:46:52;18.60;;;10.87;;
21000;SDS011;10658;50.920;12.238;2023-02-28T22:55:15;19.47;;;11.67;;
21000;SDS011;10658;50.920;12.238;2023-02-28T22:59:15;20.97;;;10.93;;
21000;SDS011;10658;50.920;12.238;2023-02-28T23:03:18;21.50;;;11.10;;
21000;SDS011;10658;50.920;12.238;2023-02-28T23:07:21;25.43;;;11.73;;
21000;SDS011;10658;50.920;12.238;2023-02-28T23:11:25;23.90;;;12.77;;
21000;SDS011;10658;50.920;12.238;2023-02-28T23:15:32;22.05;;;12.82;;
21000;SDS011;10658;50.920;12.238;2023-02-28T23:19:33;22.40;;;12.90;;
21000;SDS011;10658;50.920;12.238;2023-02-28T23:23:37;26.80;;;13.48;;
21000;SDS011;10658;50.920;12.238;2023-02-28T23:27:39;26.30;;;12.63;;
21000;SDS011;10658;50.920;12.238;2023-02-28T23:31:41;22.03;;;12.23;;
21000;SDS011;10658;50.920;12.238;2023-02-28T23:35:43;22.67;;;11.67;;
21000;SDS011;10658;50.920;12.238;2023-02-28T23:39:45;28.20;;;13.27;;
21000;SDS011;10658;50.920;12.238;2023-02-28T23:43:46;23.13;;;12.53;;
21000;SDS011;10658;50.920;12.238;2023-02-28T23:47:48;19.60;;;12.17;;
21000;SDS011;10658;50.920;12.238;2023-02-28T23:51:50;21.10;;;12.37;;
21000;SDS011;10658;50.920;12.238;2023-02-28T23:55:53;23.73;;;12.73;;
21000;SDS011;10658;50.920;12.238;2023-02-28T23:59:55;22.10;;;13.05;;
